createdAt,value
2022-09-12T00:00:45.962Z,0
2022-09-12T00:02:02.238Z,0
2022-09-12T00:03:18.544Z,0
2022-09-12T00:04:34.850Z,0
2022-09-12T00:05:51.126Z,0
2022-09-12T00:07:06.423Z,0
2022-09-12T00:08:22.721Z,0
2022-09-12T00:09:39.050Z,0
2022-09-12T00:10:55.298Z,0
2022-09-12T00:12:11.601Z,0
2022-09-12T00:13:27.891Z,0
2022-09-12T00:14:44.211Z,0
2022-09-12T00:16:00.000Z,0
2022-09-12T00:17:16.804Z,0
2022-09-12T00:18:33.070Z,0
2022-09-12T00:19:49.345Z,0
2022-09-12T00:21:05.636Z,0
2022-09-12T00:22:21.960Z,0
2022-09-12T00:23:37.249Z,0
2022-09-12T00:24:53.558Z,0
2022-09-12T00:26:09.837Z,0
2022-09-12T00:27:26.115Z,0
2022-09-12T00:28:42.435Z,0
2022-09-12T00:29:58.747Z,0
2022-09-12T00:31:15.008Z,0
2022-09-12T00:32:31.284Z,0
2022-09-12T00:33:47.578Z,0
2022-09-12T00:35:03.904Z,0
2022-09-12T00:36:20.194Z,0
2022-09-12T00:37:36.483Z,0
2022-09-12T00:38:52.765Z,0
2022-09-12T00:40:08.080Z,0
2022-09-12T00:41:24.349Z,0
2022-09-12T00:42:40.659Z,0
2022-09-12T00:43:56.966Z,0
2022-09-12T00:45:13.252Z,0
2022-09-12T00:46:29.517Z,0
2022-09-12T00:47:45.839Z,0
2022-09-12T00:49:02.113Z,0
2022-09-12T00:50:18.402Z,0
2022-09-12T00:51:34.692Z,0
2022-09-12T00:52:51.020Z,0
2022-09-12T00:54:07.281Z,0
2022-09-12T00:55:23.604Z,0
2022-09-12T00:56:38.882Z,0
2022-09-12T00:57:55.193Z,0
2022-09-12T00:59:11.489Z,0
2022-09-12T01:00:27.758Z,0
2022-09-12T01:01:44.052Z,0
2022-09-12T01:03:00.366Z,0
2022-09-12T01:04:16.632Z,0
2022-09-12T01:05:32.921Z,0
2022-09-12T01:06:49.218Z,0
2022-09-12T01:08:05.514Z,0
2022-09-12T01:09:21.802Z,0
2022-09-12T01:10:38.085Z,0
2022-09-12T01:11:54.385Z,0
2022-09-12T01:13:09.716Z,0
2022-09-12T01:14:26.015Z,0
2022-09-12T01:15:42.277Z,0
2022-09-12T01:16:58.575Z,0
2022-09-12T01:18:14.870Z,0
2022-09-12T01:19:31.156Z,0
2022-09-12T01:20:47.473Z,0
2022-09-12T01:22:03.732Z,0
2022-09-12T01:23:20.053Z,0
2022-09-12T01:24:36.335Z,0
2022-09-12T01:25:52.611Z,0
2022-09-12T01:27:08.915Z,0
2022-09-12T01:28:25.202Z,0
2022-09-12T01:29:40.505Z,0
2022-09-12T01:30:56.801Z,0
2022-09-12T01:32:13.105Z,0
2022-09-12T01:33:29.379Z,0
2022-09-12T01:34:45.671Z,0
2022-09-12T01:36:01.978Z,0
2022-09-12T01:37:18.255Z,0
2022-09-12T01:38:34.583Z,0
2022-09-12T01:39:50.846Z,0
2022-09-12T01:41:07.163Z,0
2022-09-12T01:42:23.436Z,0
2022-09-12T01:43:39.747Z,0
2022-09-12T01:44:56.023Z,0
2022-09-12T01:46:11.355Z,0
2022-09-12T01:47:27.629Z,0
2022-09-12T01:48:43.938Z,0
2022-09-12T01:50:00.198Z,0
2022-09-12T01:51:16.516Z,0
2022-09-12T01:52:32.786Z,0
2022-09-12T01:53:48.143Z,0
2022-09-12T01:55:04.397Z,0
2022-09-12T01:56:20.720Z,0
2022-09-12T01:57:36.979Z,0
2022-09-12T01:58:53.293Z,0
2022-09-12T02:00:09.593Z,0
2022-09-12T02:01:25.882Z,0
2022-09-12T02:02:42.152Z,0
2022-09-12T02:03:58.434Z,0
2022-09-12T02:05:14.733Z,0
2022-09-12T02:06:31.028Z,0
2022-09-12T02:07:47.324Z,0
2022-09-12T02:09:03.633Z,0
2022-09-12T02:10:18.919Z,0
2022-09-12T02:11:35.204Z,0
2022-09-12T02:12:51.508Z,0
2022-09-12T02:14:07.827Z,0
2022-09-12T02:15:24.090Z,0
2022-09-12T02:16:40.381Z,0
2022-09-12T02:17:56.684Z,0
2022-09-12T02:19:13.002Z,0
2022-09-12T02:20:29.264Z,0
2022-09-12T02:21:45.574Z,0
2022-09-12T02:23:01.839Z,0
2022-09-12T02:24:18.143Z,0
2022-09-12T02:25:34.422Z,0
2022-09-12T02:26:49.737Z,0
2022-09-12T02:28:06.035Z,0
2022-09-12T02:29:22.331Z,0
2022-09-12T02:30:38.610Z,0
2022-09-12T02:31:54.904Z,0
2022-09-12T02:33:11.211Z,0
2022-09-12T02:34:27.516Z,0
2022-09-12T02:35:43.794Z,0
2022-09-12T02:37:00.108Z,0
2022-09-12T02:38:16.369Z,0
2022-09-12T02:39:32.668Z,0
2022-09-12T02:40:48.967Z,0
2022-09-12T02:42:05.240Z,0
2022-09-12T02:43:20.559Z,0
2022-09-12T02:44:36.878Z,0
2022-09-12T02:45:53.171Z,0
2022-09-12T02:47:09.457Z,0
2022-09-12T02:48:25.718Z,0
2022-09-12T02:49:42.017Z,0
2022-09-12T02:50:58.313Z,0
2022-09-12T02:52:14.626Z,0
2022-09-12T02:53:30.892Z,0
2022-09-12T02:54:47.213Z,0
2022-09-12T02:56:03.474Z,0
2022-09-12T02:57:19.798Z,0
2022-09-12T02:58:36.065Z,0
2022-09-12T02:59:51.365Z,0
2022-09-12T03:01:07.661Z,0
2022-09-12T03:02:23.981Z,0
2022-09-12T03:03:40.257Z,0
2022-09-12T03:04:56.569Z,0
2022-09-12T03:06:12.840Z,0
2022-09-12T03:07:29.157Z,0
2022-09-12T03:08:45.420Z,0
2022-09-12T03:10:01.736Z,0
2022-09-12T03:11:18.014Z,0
2022-09-12T03:12:34.305Z,0
2022-09-12T03:13:50.590Z,0
2022-09-12T03:15:06.916Z,0
2022-09-12T03:16:22.184Z,0
2022-09-12T03:17:38.489Z,0
2022-09-12T03:18:54.773Z,0
2022-09-12T03:20:11.099Z,0
2022-09-12T03:21:27.353Z,0
2022-09-12T03:22:43.678Z,0
2022-09-12T03:23:59.966Z,0
2022-09-12T03:25:16.263Z,0
2022-09-12T03:26:32.560Z,0
2022-09-12T03:27:48.832Z,0
2022-09-12T03:29:05.124Z,0
2022-09-12T03:30:21.442Z,0
2022-09-12T03:31:37.697Z,0
2022-09-12T03:32:53.005Z,0
2022-09-12T03:34:09.313Z,0
2022-09-12T03:35:25.631Z,0
2022-09-12T03:36:41.883Z,0
2022-09-12T03:37:58.203Z,0
2022-09-12T03:39:14.468Z,0
2022-09-12T03:40:30.771Z,0
2022-09-12T03:41:47.063Z,0
2022-09-12T03:43:03.377Z,0
2022-09-12T03:44:19.647Z,0
2022-09-12T03:45:35.966Z,0
2022-09-12T03:46:52.264Z,0
2022-09-12T03:48:08.542Z,0
2022-09-12T03:49:23.840Z,0
2022-09-12T03:50:40.154Z,0
2022-09-12T03:51:56.408Z,0
2022-09-12T03:53:12.729Z,0
2022-09-12T03:54:28.991Z,0
2022-09-12T03:55:45.288Z,0
2022-09-12T03:57:01.000Z,0
2022-09-12T03:58:17.905Z,0
2022-09-12T03:59:34.165Z,0
2022-09-12T04:00:50.483Z,0
2022-09-12T04:02:06.781Z,0
2022-09-12T04:03:23.055Z,0
2022-09-12T04:04:39.334Z,0
2022-09-12T04:05:54.648Z,0
2022-09-12T04:07:10.948Z,0
2022-09-12T04:08:27.269Z,0
2022-09-12T04:09:43.566Z,0
2022-09-12T04:10:59.822Z,0
2022-09-12T04:12:16.085Z,0
2022-09-12T04:13:32.389Z,0
2022-09-12T04:14:48.614Z,0
2022-09-12T04:16:04.918Z,0
2022-09-12T04:17:21.180Z,0
2022-09-12T04:18:37.483Z,0
2022-09-12T04:19:53.771Z,0
2022-09-12T04:21:10.055Z,0
2022-09-12T04:22:25.278Z,0
2022-09-12T04:23:41.520Z,0
2022-09-12T04:24:57.777Z,0
2022-09-12T04:26:14.020Z,0
2022-09-12T04:27:30.235Z,0
2022-09-12T04:28:46.465Z,0
2022-09-12T04:30:02.718Z,0
2022-09-12T04:31:18.947Z,0
2022-09-12T04:32:35.191Z,0
2022-09-12T04:33:51.456Z,0
2022-09-12T04:35:07.666Z,0
2022-09-12T04:36:23.938Z,0
2022-09-12T04:37:40.153Z,0
2022-09-12T04:38:55.399Z,0
2022-09-12T04:40:11.639Z,0
2022-09-12T04:41:27.878Z,0
2022-09-12T04:42:44.113Z,0
2022-09-12T04:44:00.367Z,0
2022-09-12T04:45:16.599Z,0
2022-09-12T04:46:32.833Z,0
2022-09-12T04:47:49.071Z,0
2022-09-12T04:49:05.309Z,0
2022-09-12T04:50:21.554Z,0
2022-09-12T04:51:37.790Z,0
2022-09-12T04:52:54.034Z,0
2022-09-12T04:54:10.267Z,0
2022-09-12T04:55:25.516Z,0
2022-09-12T04:56:41.765Z,0
2022-09-12T04:57:58.003Z,0
2022-09-12T04:59:14.246Z,0
2022-09-12T05:00:30.470Z,0
2022-09-12T05:01:46.708Z,0
2022-09-12T05:03:02.955Z,0
2022-09-12T05:04:19.195Z,0
2022-09-12T05:05:35.434Z,0
2022-09-12T05:06:51.662Z,0
2022-09-12T05:08:07.915Z,0
2022-09-12T05:09:24.141Z,0
2022-09-12T05:10:40.394Z,0
2022-09-12T05:11:55.636Z,0
2022-09-12T05:13:11.889Z,0
2022-09-12T05:14:28.126Z,5
2022-09-12T05:15:44.356Z,5
2022-09-12T05:17:00.589Z,5
2022-09-12T05:18:16.835Z,5
2022-09-12T05:19:33.067Z,5
2022-09-12T05:20:49.308Z,5
2022-09-12T05:22:05.550Z,5
2022-09-12T05:23:21.797Z,5
2022-09-12T05:24:38.026Z,5
2022-09-12T05:25:54.266Z,5
2022-09-12T05:27:10.505Z,5
2022-09-12T05:28:25.754Z,5
2022-09-12T05:29:41.996Z,5
2022-09-12T05:30:58.245Z,5
2022-09-12T05:32:14.482Z,5
2022-09-12T05:33:30.706Z,11
2022-09-12T05:34:46.957Z,11
2022-09-12T05:36:03.191Z,11
2022-09-12T05:37:19.425Z,11
2022-09-12T05:38:35.666Z,11
2022-09-12T05:39:51.906Z,11
2022-09-12T05:41:08.151Z,11
2022-09-12T05:42:24.383Z,11
2022-09-12T05:43:40.629Z,11
2022-09-12T05:44:55.874Z,11
2022-09-12T05:46:12.115Z,11
2022-09-12T05:47:28.354Z,11
2022-09-12T05:48:44.590Z,11
2022-09-12T05:50:00.832Z,11
2022-09-12T05:51:17.068Z,11
2022-09-12T05:52:33.314Z,11
2022-09-12T05:53:49.540Z,11
2022-09-12T05:55:05.800Z,11
2022-09-12T05:56:22.020Z,11
2022-09-12T05:57:38.265Z,11
2022-09-12T05:58:54.495Z,11
2022-09-12T06:00:10.740Z,11
2022-09-12T06:02:42.230Z,11
2022-09-12T06:03:58.475Z,11
2022-09-12T06:05:14.723Z,11
2022-09-12T06:06:30.963Z,11
2022-09-12T06:07:47.203Z,16
2022-09-12T06:09:02.457Z,16
2022-09-12T06:10:18.689Z,16
2022-09-12T06:11:34.925Z,16
2022-09-12T06:12:51.160Z,16
2022-09-12T06:14:07.411Z,16
2022-09-12T06:15:23.637Z,16
2022-09-12T06:16:39.875Z,16
2022-09-12T06:17:56.120Z,16
2022-09-12T06:19:12.369Z,16
2022-09-12T06:20:28.596Z,16
2022-09-12T06:21:44.848Z,16
2022-09-12T06:23:01.069Z,16
2022-09-12T06:24:17.307Z,22
2022-09-12T06:25:32.569Z,22
2022-09-12T06:26:48.802Z,22
2022-09-12T06:28:05.045Z,22
2022-09-12T06:29:21.293Z,22
2022-09-12T06:30:37.526Z,28
2022-09-12T06:31:53.768Z,28
2022-09-12T06:33:10.010Z,28
2022-09-12T06:34:26.233Z,28
2022-09-12T06:35:42.480Z,28
2022-09-12T06:36:58.710Z,28
2022-09-12T06:38:14.956Z,33
2022-09-12T06:39:31.193Z,28
2022-09-12T06:40:47.431Z,28
2022-09-12T06:42:02.683Z,28
2022-09-12T06:43:18.920Z,33
2022-09-12T06:44:35.172Z,33
2022-09-12T06:45:51.397Z,33
2022-09-12T06:47:07.643Z,28
2022-09-12T06:48:23.875Z,28
2022-09-12T06:49:40.120Z,22
2022-09-12T06:50:56.353Z,22
2022-09-12T06:52:12.601Z,28
2022-09-12T06:53:28.829Z,28
2022-09-12T06:54:45.079Z,28
2022-09-12T06:56:01.309Z,33
2022-09-12T06:57:17.549Z,33
2022-09-12T06:58:32.807Z,33
2022-09-12T06:59:49.032Z,33
2022-09-12T07:01:05.272Z,33
2022-09-12T07:02:21.524Z,33
2022-09-12T07:03:37.760Z,33
2022-09-12T07:04:53.993Z,33
2022-09-12T07:06:10.231Z,39
2022-09-12T07:07:26.468Z,39
2022-09-12T07:08:42.705Z,39
2022-09-12T07:09:58.946Z,39
2022-09-12T07:11:15.177Z,39
2022-09-12T07:12:31.415Z,39
2022-09-12T07:13:47.655Z,39
2022-09-12T07:15:02.924Z,39
2022-09-12T07:16:19.152Z,33
2022-09-12T07:17:35.399Z,33
2022-09-12T07:18:51.625Z,33
2022-09-12T07:20:07.865Z,33
2022-09-12T07:21:24.114Z,33
2022-09-12T07:22:40.348Z,33
2022-09-12T07:23:56.585Z,33
2022-09-12T07:25:12.833Z,33
2022-09-12T07:26:29.070Z,33
2022-09-12T07:27:45.295Z,33
2022-09-12T07:29:01.546Z,33
2022-09-12T07:30:17.781Z,39
2022-09-12T07:31:33.033Z,39
2022-09-12T07:32:49.278Z,39
2022-09-12T07:34:05.507Z,39
2022-09-12T07:35:21.740Z,39
2022-09-12T07:36:37.991Z,39
2022-09-12T07:37:54.219Z,39
2022-09-12T07:39:10.460Z,39
2022-09-12T07:40:26.714Z,39
2022-09-12T07:41:42.938Z,39
2022-09-12T07:42:59.177Z,39
2022-09-12T07:44:15.411Z,39
2022-09-12T07:45:31.666Z,39
2022-09-12T07:46:47.901Z,39
2022-09-12T07:48:03.140Z,39
2022-09-12T07:49:19.391Z,39
2022-09-12T07:50:35.618Z,45
2022-09-12T07:51:51.862Z,39
2022-09-12T07:53:08.110Z,45
2022-09-12T07:54:24.337Z,45
2022-09-12T07:55:40.578Z,39
2022-09-12T07:56:56.815Z,50
2022-09-12T07:58:13.059Z,50
2022-09-12T07:59:29.290Z,50
2022-09-12T08:00:45.546Z,50
2022-09-12T08:02:01.766Z,50
2022-09-12T08:03:18.012Z,50
2022-09-12T08:04:33.273Z,50
2022-09-12T08:05:49.502Z,50
2022-09-12T08:07:05.746Z,56
2022-09-12T08:08:21.983Z,50
2022-09-12T08:09:38.213Z,50
2022-09-12T08:10:54.471Z,50
2022-09-12T08:12:10.709Z,45
2022-09-12T08:13:26.932Z,45
2022-09-12T08:14:43.178Z,45
2022-09-12T08:15:59.417Z,39
2022-09-12T08:17:15.653Z,45
2022-09-12T08:18:31.894Z,39
2022-09-12T08:19:48.140Z,39
2022-09-12T08:21:03.386Z,39
2022-09-12T08:22:19.620Z,39
2022-09-12T08:23:35.856Z,39
2022-09-12T08:24:52.109Z,39
2022-09-12T08:26:08.333Z,39
2022-09-12T08:27:24.578Z,39
2022-09-12T08:28:40.810Z,39
2022-09-12T08:29:57.058Z,39
2022-09-12T08:31:13.288Z,39
2022-09-12T08:32:29.538Z,39
2022-09-12T08:33:45.775Z,45
2022-09-12T08:35:02.008Z,39
2022-09-12T08:36:18.245Z,39
2022-09-12T08:37:33.505Z,45
2022-09-12T08:38:49.746Z,39
2022-09-12T08:40:05.976Z,39
2022-09-12T08:41:22.215Z,39
2022-09-12T08:42:38.454Z,50
2022-09-12T08:43:54.707Z,50
2022-09-12T08:45:10.950Z,45
2022-09-12T08:46:27.178Z,45
2022-09-12T08:47:43.411Z,39
2022-09-12T08:48:59.656Z,39
2022-09-12T08:50:15.885Z,50
2022-09-12T08:51:32.129Z,50
2022-09-12T08:52:48.380Z,50
2022-09-12T08:54:03.618Z,56
2022-09-12T08:55:19.857Z,56
2022-09-12T08:56:36.099Z,56
2022-09-12T08:57:52.335Z,56
2022-09-12T08:59:08.579Z,56
2022-09-12T09:00:24.814Z,50
2022-09-12T09:01:41.068Z,56
2022-09-12T09:02:57.293Z,50
2022-09-12T09:04:13.530Z,56
2022-09-12T09:05:29.774Z,50
2022-09-12T09:06:46.009Z,56
2022-09-12T09:08:02.250Z,56
2022-09-12T09:09:18.500Z,50
2022-09-12T09:10:33.741Z,45
2022-09-12T09:11:49.997Z,39
2022-09-12T09:13:06.234Z,45
2022-09-12T09:14:22.472Z,61
2022-09-12T09:15:38.697Z,45
2022-09-12T09:16:54.935Z,61
2022-09-12T09:18:11.193Z,61
2022-09-12T09:19:27.431Z,61
2022-09-12T09:20:43.651Z,61
2022-09-12T09:21:59.896Z,67
2022-09-12T09:23:16.138Z,67
2022-09-12T09:24:32.380Z,67
2022-09-12T09:25:48.621Z,67
2022-09-12T09:27:03.872Z,67
2022-09-12T09:28:20.106Z,67
2022-09-12T09:29:36.357Z,67
2022-09-12T09:30:52.585Z,73
2022-09-12T09:32:08.828Z,73
2022-09-12T09:33:25.059Z,73
2022-09-12T09:34:41.299Z,73
2022-09-12T09:35:57.541Z,73
2022-09-12T09:37:13.782Z,73
2022-09-12T09:38:30.024Z,73
2022-09-12T09:39:46.270Z,73
2022-09-12T09:41:02.499Z,67
2022-09-12T09:42:18.744Z,61
2022-09-12T09:43:33.997Z,73
2022-09-12T09:44:50.242Z,78
2022-09-12T09:46:06.481Z,78
2022-09-12T09:47:22.708Z,73
2022-09-12T09:48:38.959Z,73
2022-09-12T09:49:55.196Z,73
2022-09-12T09:51:11.440Z,78
2022-09-12T09:52:27.662Z,56
2022-09-12T09:53:43.907Z,67
2022-09-12T09:55:00.145Z,78
2022-09-12T09:56:16.382Z,90
2022-09-12T09:57:32.629Z,95
2022-09-12T09:58:48.866Z,123
2022-09-12T10:00:04.126Z,129
2022-09-12T10:01:20.355Z,140
2022-09-12T10:02:36.595Z,129
2022-09-12T10:03:52.837Z,140
2022-09-12T10:05:09.071Z,140
2022-09-12T10:06:25.324Z,78
2022-09-12T10:07:41.555Z,84
2022-09-12T10:08:57.795Z,73
2022-09-12T10:10:14.034Z,73
2022-09-12T10:11:30.274Z,73
2022-09-12T10:12:46.530Z,225
2022-09-12T10:14:02.757Z,73
2022-09-12T10:15:18.991Z,78
2022-09-12T10:16:34.251Z,84
2022-09-12T10:17:50.494Z,84
2022-09-12T10:19:06.733Z,78
2022-09-12T10:20:22.976Z,90
2022-09-12T10:21:39.219Z,78
2022-09-12T10:22:55.457Z,78
2022-09-12T10:24:10.716Z,106
2022-09-12T10:25:26.951Z,146
2022-09-12T10:26:43.187Z,202
2022-09-12T10:27:59.444Z,168
2022-09-12T10:29:15.666Z,129
2022-09-12T10:30:31.920Z,90
2022-09-12T10:31:48.149Z,196
2022-09-12T10:33:04.389Z,202
2022-09-12T10:34:20.640Z,180
2022-09-12T10:35:36.871Z,185
2022-09-12T10:36:53.115Z,185
2022-09-12T10:38:09.358Z,146
2022-09-12T10:39:25.591Z,191
2022-09-12T10:40:40.859Z,202
2022-09-12T10:41:57.085Z,95
2022-09-12T10:43:13.321Z,84
2022-09-12T10:44:29.559Z,73
2022-09-12T10:45:45.810Z,78
2022-09-12T10:47:02.039Z,84
2022-09-12T10:48:18.276Z,84
2022-09-12T10:49:34.528Z,78
2022-09-12T10:50:50.763Z,78
2022-09-12T10:52:07.005Z,78
2022-09-12T10:53:23.235Z,95
2022-09-12T10:54:39.478Z,146
2022-09-12T10:55:55.711Z,140
2022-09-12T10:57:10.968Z,196
2022-09-12T10:58:27.212Z,202
2022-09-12T10:59:43.457Z,185
2022-09-12T11:00:59.688Z,202
2022-09-12T11:02:15.928Z,213
2022-09-12T11:03:32.159Z,208
2022-09-12T11:04:48.416Z,208
2022-09-12T11:06:04.643Z,213
2022-09-12T11:07:20.883Z,213
2022-09-12T11:08:37.113Z,225
2022-09-12T11:09:53.360Z,225
2022-09-12T11:11:09.596Z,225
2022-09-12T11:12:25.836Z,219
2022-09-12T11:13:41.097Z,219
2022-09-12T11:14:57.332Z,219
2022-09-12T11:16:13.575Z,219
2022-09-12T11:17:29.813Z,185
2022-09-12T11:18:46.058Z,180
2022-09-12T11:20:02.286Z,196
2022-09-12T11:21:18.533Z,112
2022-09-12T11:22:34.773Z,185
2022-09-12T11:23:51.012Z,219
2022-09-12T11:25:07.245Z,112
2022-09-12T11:26:23.485Z,213
2022-09-12T11:27:39.722Z,112
2022-09-12T11:28:55.958Z,101
2022-09-12T11:30:11.212Z,90
2022-09-12T11:31:27.450Z,90
2022-09-12T11:32:43.704Z,84
2022-09-12T11:33:59.926Z,90
2022-09-12T11:35:16.163Z,129
2022-09-12T11:36:32.415Z,61
2022-09-12T11:37:48.646Z,61
2022-09-12T11:39:04.887Z,61
2022-09-12T11:40:21.117Z,61
2022-09-12T11:41:37.360Z,67
2022-09-12T11:42:53.605Z,73
2022-09-12T11:44:09.843Z,73
2022-09-12T11:45:26.092Z,78
2022-09-12T11:46:41.326Z,95
2022-09-12T11:47:57.571Z,191
2022-09-12T11:49:13.806Z,135
2022-09-12T11:50:30.047Z,247
2022-09-12T11:51:46.304Z,112
2022-09-12T11:53:02.526Z,106
2022-09-12T11:54:18.766Z,118
2022-09-12T11:55:35.019Z,180
2022-09-12T11:56:51.000Z,230
2022-09-12T11:58:07.483Z,286
2022-09-12T12:00:39.978Z,264
2022-09-12T12:01:56.202Z,270
2022-09-12T12:03:11.452Z,264
2022-09-12T12:04:27.709Z,123
2022-09-12T12:05:43.934Z,241
2022-09-12T12:07:00.186Z,275
2022-09-12T12:08:16.416Z,264
2022-09-12T12:09:32.648Z,281
2022-09-12T12:10:48.895Z,281
2022-09-12T12:12:05.142Z,258
2022-09-12T12:13:21.366Z,270
2022-09-12T12:14:37.620Z,286
2022-09-12T12:15:53.855Z,298
2022-09-12T12:17:10.079Z,303
2022-09-12T12:18:26.317Z,303
2022-09-12T12:19:41.584Z,292
2022-09-12T12:20:57.821Z,303
2022-09-12T12:22:14.062Z,303
2022-09-12T12:23:30.289Z,303
2022-09-12T12:24:46.539Z,298
2022-09-12T12:26:02.762Z,275
2022-09-12T12:27:19.002Z,281
2022-09-12T12:28:35.250Z,275
2022-09-12T12:29:51.491Z,270
2022-09-12T12:31:07.724Z,264
2022-09-12T12:32:23.953Z,247
2022-09-12T12:33:40.195Z,241
2022-09-12T12:34:56.442Z,270
2022-09-12T12:36:11.685Z,247
2022-09-12T12:37:27.935Z,247
2022-09-12T12:38:44.168Z,247
2022-09-12T12:40:00.408Z,270
2022-09-12T12:41:16.644Z,270
2022-09-12T12:42:32.894Z,275
2022-09-12T12:43:49.123Z,270
2022-09-12T12:45:05.368Z,270
2022-09-12T12:46:21.597Z,258
2022-09-12T12:47:37.840Z,258
2022-09-12T12:48:54.067Z,258
2022-09-12T12:50:10.321Z,258
2022-09-12T12:51:26.552Z,270
2022-09-12T12:52:41.802Z,264
2022-09-12T12:53:58.051Z,241
2022-09-12T12:55:14.293Z,241
2022-09-12T12:56:30.520Z,236
2022-09-12T12:57:46.768Z,247
2022-09-12T12:59:03.000Z,253
2022-09-12T13:00:19.237Z,253
2022-09-12T13:01:35.464Z,264
2022-09-12T13:02:51.704Z,275
2022-09-12T13:04:07.942Z,281
2022-09-12T13:05:24.181Z,275
2022-09-12T13:06:40.419Z,292
2022-09-12T13:07:56.666Z,292
2022-09-12T13:09:11.914Z,292
2022-09-12T13:10:28.163Z,309
2022-09-12T13:11:44.391Z,315
2022-09-12T13:13:00.628Z,281
2022-09-12T13:14:16.876Z,292
2022-09-12T13:15:33.105Z,315
2022-09-12T13:16:49.350Z,315
2022-09-12T13:18:05.581Z,298
2022-09-12T13:19:21.817Z,303
2022-09-12T13:20:38.063Z,292
2022-09-12T13:21:54.308Z,292
2022-09-12T13:23:10.544Z,275
2022-09-12T13:24:26.782Z,281
2022-09-12T13:25:42.029Z,275
2022-09-12T13:26:58.272Z,241
2022-09-12T13:28:14.518Z,247
2022-09-12T13:29:30.743Z,253
2022-09-12T13:30:46.978Z,270
2022-09-12T13:32:03.224Z,270
2022-09-12T13:33:19.468Z,247
2022-09-12T13:34:35.705Z,247
2022-09-12T13:35:51.931Z,253
2022-09-12T13:37:08.181Z,241
2022-09-12T13:38:24.419Z,236
2022-09-12T13:39:40.653Z,230
2022-09-12T13:40:56.896Z,230
2022-09-12T13:42:12.147Z,123
2022-09-12T13:43:28.389Z,112
2022-09-12T13:44:44.615Z,112
2022-09-12T13:47:17.105Z,140
2022-09-12T13:48:33.339Z,168
2022-09-12T13:49:49.580Z,174
2022-09-12T13:51:05.824Z,101
2022-09-12T13:52:22.052Z,106
2022-09-12T13:54:54.521Z,90
2022-09-12T13:56:10.767Z,90
2022-09-12T13:57:27.001Z,84
2022-09-12T13:58:42.260Z,84
2022-09-12T13:59:58.494Z,84
2022-09-12T14:01:14.743Z,84
2022-09-12T14:02:30.969Z,101
2022-09-12T14:03:47.204Z,95
2022-09-12T14:05:03.456Z,101
2022-09-12T14:06:19.695Z,95
2022-09-12T14:07:35.927Z,90
2022-09-12T14:08:52.166Z,84
2022-09-12T14:10:08.407Z,84
2022-09-12T14:11:24.638Z,90
2022-09-12T14:12:40.876Z,84
2022-09-12T14:13:57.120Z,84
2022-09-12T14:15:12.369Z,84
2022-09-12T14:16:28.598Z,84
2022-09-12T14:17:44.851Z,84
2022-09-12T14:19:01.078Z,84
2022-09-12T14:20:17.316Z,84
2022-09-12T14:21:33.553Z,84
2022-09-12T14:22:49.796Z,78
2022-09-12T14:24:06.046Z,73
2022-09-12T14:25:22.267Z,67
2022-09-12T14:26:38.515Z,67
2022-09-12T14:29:10.982Z,67
2022-09-12T14:30:27.231Z,61
2022-09-12T14:31:42.487Z,61
2022-09-12T14:32:58.721Z,56
2022-09-12T14:34:14.967Z,56
2022-09-12T14:35:31.187Z,56
2022-09-12T14:36:47.430Z,56
2022-09-12T14:38:03.675Z,50
2022-09-12T14:39:18.943Z,50
2022-09-12T14:40:35.161Z,50
2022-09-12T14:41:51.400Z,50
2022-09-12T14:43:07.643Z,56
2022-09-12T14:44:23.880Z,56
2022-09-12T14:45:40.121Z,50
2022-09-12T14:46:56.365Z,50
2022-09-12T14:48:12.596Z,50
2022-09-12T14:49:28.841Z,56
2022-09-12T14:50:45.075Z,56
2022-09-12T14:52:01.312Z,56
2022-09-12T14:53:17.565Z,56
2022-09-12T14:54:33.804Z,61
2022-09-12T14:55:50.033Z,61
2022-09-12T14:57:05.290Z,61
2022-09-12T14:58:21.523Z,61
2022-09-12T14:59:37.755Z,56
2022-09-12T15:00:54.005Z,56
2022-09-12T15:02:10.249Z,56
2022-09-12T15:03:26.473Z,56
2022-09-12T15:04:42.715Z,56
2022-09-12T15:05:58.962Z,56
2022-09-12T15:07:15.191Z,56
2022-09-12T15:08:31.437Z,56
2022-09-12T15:09:47.685Z,50
2022-09-12T15:11:03.914Z,45
2022-09-12T15:12:20.148Z,45
2022-09-12T15:13:35.405Z,45
2022-09-12T15:14:51.651Z,45
2022-09-12T15:16:07.888Z,45
2022-09-12T15:17:24.119Z,39
2022-09-12T15:18:40.362Z,39
2022-09-12T15:19:56.605Z,39
2022-09-12T15:21:12.849Z,39
2022-09-12T15:22:29.092Z,39
2022-09-12T15:23:45.322Z,39
2022-09-12T15:25:01.559Z,39
2022-09-12T15:26:17.791Z,39
2022-09-12T15:27:34.047Z,39
2022-09-12T15:28:50.277Z,39
2022-09-12T15:30:05.529Z,39
2022-09-12T15:31:21.761Z,39
2022-09-12T15:32:38.013Z,39
2022-09-12T15:33:54.244Z,33
2022-09-12T15:35:10.492Z,33
2022-09-12T15:36:26.741Z,33
2022-09-12T15:37:42.968Z,33
2022-09-12T15:38:59.211Z,33
2022-09-12T15:40:15.448Z,33
2022-09-12T15:41:31.681Z,28
2022-09-12T15:42:47.912Z,28
2022-09-12T15:44:04.158Z,28
2022-09-12T15:45:20.396Z,28
2022-09-12T15:46:35.656Z,28
2022-09-12T15:47:51.902Z,28
2022-09-12T15:49:08.122Z,28
2022-09-12T15:50:24.368Z,28
2022-09-12T15:51:40.609Z,22
2022-09-12T15:52:56.852Z,22
2022-09-12T15:54:13.084Z,22
2022-09-12T15:55:29.325Z,22
2022-09-12T15:56:45.574Z,22
2022-09-12T15:58:01.813Z,22
2022-09-12T15:59:18.039Z,22
2022-09-12T16:00:34.292Z,22
2022-09-12T16:01:50.511Z,22
2022-09-12T16:03:05.765Z,22
2022-09-12T16:04:22.013Z,22
2022-09-12T16:05:38.264Z,22
2022-09-12T16:06:54.499Z,22
2022-09-12T16:08:10.736Z,22
2022-09-12T16:09:26.976Z,22
2022-09-12T16:10:43.208Z,22
2022-09-12T16:11:59.446Z,22
2022-09-12T16:13:15.690Z,22
2022-09-12T16:14:31.926Z,22
2022-09-12T16:15:48.169Z,22
2022-09-12T16:17:04.405Z,28
2022-09-12T16:18:20.648Z,28
2022-09-12T16:19:35.896Z,33
2022-09-12T16:20:52.143Z,33
2022-09-12T16:22:08.383Z,33
2022-09-12T16:23:24.607Z,33
2022-09-12T16:24:40.852Z,33
2022-09-12T16:25:57.102Z,28
2022-09-12T16:27:13.335Z,28
2022-09-12T16:28:29.579Z,28
2022-09-12T16:29:45.812Z,28
2022-09-12T16:31:02.050Z,28
2022-09-12T16:32:18.285Z,33
2022-09-12T16:33:34.532Z,33
2022-09-12T16:34:50.763Z,39
2022-09-12T16:36:06.022Z,33
2022-09-12T16:37:22.271Z,33
2022-09-12T16:38:38.512Z,33
2022-09-12T16:39:54.756Z,33
2022-09-12T16:41:10.982Z,33
2022-09-12T16:42:27.220Z,33
2022-09-12T16:43:43.469Z,33
2022-09-12T16:44:59.724Z,33
2022-09-12T16:46:15.951Z,33
2022-09-12T16:47:32.176Z,33
2022-09-12T16:48:48.420Z,33
2022-09-12T16:50:04.665Z,33
2022-09-12T16:51:20.913Z,33
2022-09-12T16:52:36.157Z,33
2022-09-12T16:53:52.388Z,33
2022-09-12T16:55:08.641Z,33
2022-09-12T16:56:24.868Z,28
2022-09-12T16:57:41.117Z,28
2022-09-12T16:58:57.354Z,28
2022-09-12T17:00:13.594Z,22
2022-09-12T17:01:29.842Z,16
2022-09-12T17:02:46.066Z,16
2022-09-12T17:04:02.306Z,16
2022-09-12T17:05:18.555Z,11
2022-09-12T17:06:34.795Z,11
2022-09-12T17:07:51.038Z,11
2022-09-12T17:09:06.287Z,11
2022-09-12T17:10:22.520Z,11
2022-09-12T17:11:38.771Z,5
2022-09-12T17:12:54.994Z,5
2022-09-12T17:14:11.236Z,5
2022-09-12T17:15:27.486Z,5
2022-09-12T17:16:43.714Z,5
2022-09-12T17:17:59.966Z,0
2022-09-12T17:19:16.198Z,0
2022-09-12T17:20:32.448Z,0
2022-09-12T17:21:48.677Z,0
2022-09-12T17:23:04.923Z,0
2022-09-12T17:24:21.154Z,0
2022-09-12T17:25:36.416Z,0
2022-09-12T17:26:52.659Z,0
2022-09-12T17:28:08.886Z,0
2022-09-12T17:29:25.141Z,0
2022-09-12T17:30:41.384Z,0
2022-09-12T17:31:57.621Z,0
2022-09-12T17:33:13.847Z,0
2022-09-12T17:34:30.104Z,0
2022-09-12T17:35:46.347Z,0
2022-09-12T17:37:02.566Z,0
2022-09-12T17:38:18.805Z,0
2022-09-12T17:39:35.044Z,0
2022-09-12T17:40:51.299Z,0
2022-09-12T17:42:06.546Z,0
2022-09-12T17:43:22.796Z,0
2022-09-12T17:44:39.027Z,0
2022-09-12T17:45:55.276Z,0
2022-09-12T17:47:11.509Z,0
2022-09-12T17:48:27.749Z,0
2022-09-12T17:49:44.001Z,0
2022-09-12T17:51:00.231Z,0
2022-09-12T17:53:32.706Z,0
2022-09-12T17:54:48.957Z,0
2022-09-12T17:56:05.187Z,0
2022-09-12T17:57:21.429Z,0
2022-09-12T17:58:36.690Z,0
2022-09-12T17:59:52.983Z,0
2022-09-12T18:01:09.287Z,0
2022-09-12T18:02:25.574Z,0
2022-09-12T18:03:41.866Z,0
2022-09-12T18:04:58.155Z,0
2022-09-12T18:06:14.453Z,0
2022-09-12T18:07:30.743Z,0
2022-09-12T18:08:47.043Z,0
2022-09-12T18:10:03.344Z,0
2022-09-12T18:11:19.637Z,0
2022-09-12T18:12:35.931Z,0
2022-09-12T18:13:52.213Z,0
2022-09-12T18:15:07.539Z,0
2022-09-12T18:16:23.828Z,0
2022-09-12T18:17:40.103Z,0
2022-09-12T18:18:56.401Z,0
2022-09-12T18:20:12.705Z,0
2022-09-12T18:21:28.993Z,0